Time;durP1;ratioP1;P1;durP2;ratioP2;P2;SDS_P1;SDS_P2;PMS_P1;PMS_P2;Temp;Humidity;BMP_temperature;BMP_pressure;BME280_temperature;BME280_humidity;BME280_pressure;Samples;Min_cycle;Max_cycle;Signal;HPM_P1;HPM_P2
2022/10/09 00:00:34;;;;;;;5.80;2.35;;;;;;;;;;5015643;28;20057;-73
2022/10/09 00:03:01;;;;;;;6.47;2.10;;;;;;;;;;5032411;28;20363;-71
2022/10/09 00:05:27;;;;;;;12.88;2.15;;;;;;;;;;5031976;28;20077;-72
2022/10/09 00:07:53;;;;;;;7.38;2.17;;;;;;;;;;5015573;28;20077;-72
2022/10/09 00:10:20;;;;;;;9.70;2.22;;;;;;;;;;5015129;28;20060;-72
2022/10/09 00:12:46;;;;;;;8.23;2.33;;;;;;;;;;5031931;28;20073;-72
2022/10/09 00:15:12;;;;;;;8.38;2.28;;;;;;;;;;5031968;28;20037;-72
2022/10/09 00:17:39;;;;;;;7.82;2.38;;;;;;;;;;5015568;28;20081;-72
2022/10/09 00:20:05;;;;;;;7.38;2.20;;;;;;;;;;5033001;28;20041;-72
2022/10/09 00:22:31;;;;;;;11.75;2.55;;;;;;;;;;5031780;28;20037;-72
2022/10/09 00:24:57;;;;;;;9.25;3.05;;;;;;;;;;5032086;28;20389;-72
2022/10/09 00:27:24;;;;;;;7.68;2.65;;;;;;;;;;5015246;28;20052;-72
2022/10/09 00:29:50;;;;;;;10.07;2.95;;;;;;;;;;5032075;28;20038;-72
2022/10/09 00:32:16;;;;;;;8.38;2.60;;;;;;;;;;5031944;28;20045;-72
2022/10/09 00:34:43;;;;;;;8.48;2.30;;;;;;;;;;5031672;28;20068;-72
2022/10/09 00:37:09;;;;;;;8.63;2.85;;;;;;;;;;5031944;28;20038;-72
2022/10/09 00:39:35;;;;;;;9.95;2.75;;;;;;;;;;5031761;28;20375;-72
2022/10/09 00:42:03;;;;;;;5.95;2.33;;;;;;;;;;5031645;28;20099;-73
2022/10/09 00:44:58;;;;;;;6.75;2.38;;;10.10;99.90;;;;;;5015138;28;20124;-72
2022/10/09 00:47:33;;;;;;;9.30;2.47;;;;;;;;;;5031946;28;20053;-72
2022/10/09 00:50:04;;;;;;;6.03;2.20;;;;;;;;;;5031563;28;20057;-72
2022/10/09 00:52:31;;;;;;;7.40;2.38;;;;;;;;;;5031571;28;20052;-72
2022/10/09 00:54:58;;;;;;;8.13;2.70;;;;;;;;;;5048146;28;20091;-72
2022/10/09 00:57:24;;;;;;;9.20;2.40;;;;;;;;;;5033115;28;20049;-72
2022/10/09 00:59:51;;;;;;;8.02;2.22;;;;;;;;;;5031458;28;20049;-72
2022/10/09 01:02:17;;;;;;;8.70;2.47;;;;;;;;;;5031667;28;20411;-72
2022/10/09 01:04:43;;;;;;;5.40;2.17;;;;;;;;;;5032472;28;20099;-72
2022/10/09 01:07:21;;;;;;;10.75;2.45;;;;;;;;;;5031086;28;20131;-72
2022/10/09 01:09:55;;;;;;;10.13;2.50;;;;;;;;;;5031560;28;20389;-72
2022/10/09 01:12:29;;;;;;;10.20;2.65;;;;;;;;;;5031226;28;20044;-72
2022/10/09 01:15:04;;;;;;;5.55;2.00;;;;;;;;;;5031538;28;20120;-72
2022/10/09 01:17:35;;;;;;;6.63;2.17;;;;;;;;;;5032626;28;20037;-72
2022/10/09 01:20:13;;;;;;;9.85;2.35;;;;;;;;;;5031270;28;20524;-72
2022/10/09 01:22:45;;;;;;;7.60;2.30;;;;;;;;;;5033655;28;20077;-72
2022/10/09 01:25:19;;;;;;;7.57;2.28;;;;;;;;;;5036208;28;20046;-72
2022/10/09 01:27:45;;;;;;;8.45;2.25;;;;;;;;;;5034791;28;20050;-72
2022/10/09 01:30:12;;;;;;;7.22;2.38;;;;;;;;;;5034711;28;20045;-72
2022/10/09 01:32:43;;;;;;;4.88;2.38;;;;;;;;;;5034662;28;20044;-72
2022/10/09 01:35:10;;;;;;;5.22;2.50;;;;;;;;;;5034780;28;20394;-72
2022/10/09 01:37:38;;;;;;;4.63;2.00;;;;;;;;;;5018053;28;20042;-72
2022/10/09 01:40:05;;;;;;;6.32;2.33;;;;;;;;;;5034473;28;20087;-72
2022/10/09 01:42:32;;;;;;;4.65;1.80;;;;;;;;;;5034847;28;20144;-72
2022/10/09 01:44:58;;;;;;;7.82;2.20;;;;;;;;;;5018245;28;20068;-72
2022/10/09 01:47:24;;;;;;;5.88;2.20;;;;;;;;;;5017989;28;20060;-72
2022/10/09 01:49:53;;;;;;;8.00;2.10;;;;;;;;;;5034161;28;20613;-72
2022/10/09 01:52:38;;;;;;;8.63;2.20;;;;;;;;;;5034644;28;20107;-72
2022/10/09 01:55:07;;;;;;;8.55;2.38;;;;;;;;;;5017647;28;20029;-72
2022/10/09 01:57:37;;;;;;;10.68;2.40;;;;;;;;;;5034480;28;20052;-72
2022/10/09 02:00:05;;;;;;;4.70;2.08;;;;;;;;;;5034171;28;20045;-72
2022/10/09 02:02:31;;;;;;;4.78;2.30;;;;;;;;;;5034334;28;20064;-72
2022/10/09 02:04:57;;;;;;;9.07;2.50;;;;;;;;;;5034159;28;20048;-72
2022/10/09 02:07:24;;;;;;;4.13;2.15;;;;;;;;;;5017755;28;20052;-72
2022/10/09 02:09:52;;;;;;;4.65;2.15;;;;;;;;;;5034335;28;20045;-72
2022/10/09 02:12:19;;;;;;;6.95;2.45;;;;;;;;;;5035304;28;20042;-72
2022/10/09 02:14:45;;;;;;;6.65;2.83;;;;;;;;;;5034266;28;20047;-72
2022/10/09 02:17:17;;;;;;;5.15;2.22;;;;;;;;;;5033952;28;20045;-72
2022/10/09 02:19:46;;;;;;;6.40;2.80;;;;;;;;;;5017468;28;20063;-72
2022/10/09 02:22:14;;;;;;;7.55;2.40;;;;;;;;;;5034165;28;20041;-72
2022/10/09 02:24:41;;;;;;;5.85;2.40;;;;;;;;;;5033988;28;20038;-72
2022/10/09 02:27:08;;;;;;;11.52;2.30;;;;;;;;;;5017406;28;20393;-72
2022/10/09 02:29:34;;;;;;;4.72;2.28;;;;;;;;;;5017585;28;20054;-72
2022/10/09 02:32:00;;;;;;;6.30;2.20;;;;;;;;;;5033648;28;20080;-72
2022/10/09 02:34:26;;;;;;;8.00;2.47;;;;;;;;;;5032827;28;20037;-72
2022/10/09 02:36:52;;;;;;;5.68;2.22;;;;;;;;;;5033530;28;20512;-72
2022/10/09 02:39:18;;;;;;;4.95;2.28;;;;;;;;;;5033727;28;20045;-72
2022/10/09 02:41:44;;;;;;;6.53;2.65;;;;;;;;;;5016904;28;20053;-72
2022/10/09 02:44:10;;;;;;;6.07;2.80;;;;;;;;;;5033350;28;20041;-72
2022/10/09 02:46:37;;;;;;;4.55;1.65;;;;;;;;;;5033148;28;20045;-72
2022/10/09 02:49:03;;;;;;;4.25;2.05;;;;;;;;;;5049625;28;20050;-72
2022/10/09 02:51:30;;;;;;;6.57;2.10;;;;;;;;;;5033089;28;20079;-72
2022/10/09 02:53:58;;;;;;;10.73;2.58;;;;;;;;;;5033092;28;20178;-72
2022/10/09 02:56:24;;;;;;;3.63;2.28;;;;;;;;;;5033307;28;20125;-73
2022/10/09 02:58:51;;;;;;;7.13;3.28;;;;;;;;;;5016682;28;20505;-72
2022/10/09 03:01:17;;;;;;;6.85;2.97;;;;;;;;;;5032996;28;20047;-72
2022/10/09 03:03:43;;;;;;;5.60;2.92;;;;;;;;;;5032967;28;20053;-72
2022/10/09 03:06:28;;;;;;;5.60;2.40;;;;;;;;;;5033102;28;20040;-72
2022/10/09 03:08:55;;;;;;;6.70;2.28;;;;;;;;;;5016347;28;20041;-72
2022/10/09 03:11:22;;;;;;;12.82;2.58;;;;;;;;;;5032840;28;20103;-72
2022/10/09 03:13:48;;;;;;;8.95;2.53;;;;;;;;;;5032710;28;20132;-72
2022/10/09 03:16:16;;;;;;;5.65;2.75;;;;;;;;;;5032920;28;20129;-72
2022/10/09 03:18:43;;;;;;;5.85;2.70;;;;;;;;;;5016406;28;20115;-72
2022/10/09 03:21:11;;;;;;;9.25;2.92;;;;;;;;;;5032628;28;20033;-72
2022/10/09 03:23:37;;;;;;;10.85;2.85;;;;;;;;;;5032663;28;20033;-72
2022/10/09 03:26:08;;;;;;;6.35;2.85;;;;;;;;;;5032717;28;20044;-72
2022/10/09 03:28:35;;;;;;;6.43;2.35;;;;;;;;;;5032438;28;20524;-73
2022/10/09 03:31:01;;;;;;;5.05;2.17;;;;;;;;;;5032614;28;20615;-72
2022/10/09 03:33:27;;;;;;;9.63;2.50;;;;;;;;;;5032815;28;20033;-72
2022/10/09 03:35:53;;;;;;;8.85;2.92;;;;;;;;;;5016005;28;20056;-72
2022/10/09 03:38:19;;;;;;;5.95;2.53;;;;;;;;;;5016104;28;20512;-72
2022/10/09 03:40:47;;;;;;;4.38;2.80;;;;;;;;;;5032733;28;20111;-72
2022/10/09 03:43:13;;;;;;;6.65;2.83;;;;;;;;;;5033653;28;20045;-72
2022/10/09 03:45:40;;;;;;;9.00;3.00;;;;;;;;;;5032530;28;20098;-72
2022/10/09 03:48:06;;;;;;;4.88;2.60;;;;;;;;;;5032201;28;20060;-72
2022/10/09 03:50:32;;;;;;;7.22;2.78;;;;;;;;;;5015583;28;20085;-72
2022/10/09 03:52:59;;;;;;;7.63;3.53;;;;;;;;;;5032147;28;20486;-72
2022/10/09 03:55:25;;;;;;;9.18;3.00;;;;;;;;;;5032088;28;20116;-72
2022/10/09 03:57:51;;;;;;;11.10;3.42;;;;;;;;;;5032103;28;20041;-72
2022/10/09 04:00:17;;;;;;;6.75;3.67;;;;;;;;;;5015744;28;20506;-72
2022/10/09 04:02:43;;;;;;;7.97;3.65;;;;;;;;;;5032379;28;20053;-72
2022/10/09 04:05:09;;;;;;;8.13;3.80;;;;;;;;;;5032007;28;20474;-72
2022/10/09 04:07:35;;;;;;;8.55;3.95;;;;;;;;;;5033217;28;20057;-72
2022/10/09 04:10:01;;;;;;;7.03;4.07;;;;;;;;;;5031885;28;20041;-72
2022/10/09 04:12:27;;;;;;;7.80;3.55;;;;;;;;;;5031930;28;20037;-72
2022/10/09 04:14:53;;;;;;;5.25;3.20;;;;;;;;;;5015755;28;20046;-72
2022/10/09 04:17:19;;;;;;;5.50;3.92;;;;;;;;;;5032140;28;20033;-72
2022/10/09 04:19:45;;;;;;;4.57;3.30;;;;;;;;;;5031664;28;20076;-72
2022/10/09 04:22:11;;;;;;;8.02;4.15;;;;;;;;;;5015560;28;20148;-72
2022/10/09 04:24:37;;;;;;;5.97;3.45;;;;;;;;;;5033016;28;20038;-72
2022/10/09 04:27:03;;;;;;;4.70;3.15;;;;;;;;;;5031577;28;20048;-72
2022/10/09 04:29:30;;;;;;;7.82;3.33;;;;;;;;;;5031797;28;20077;-72
2022/10/09 04:31:56;;;;;;;11.82;2.88;;;;;;;;;;5015475;28;20459;-72
2022/10/09 04:34:22;;;;;;;4.97;3.13;;;;;;;;;;5032906;28;20096;-72
2022/10/09 04:36:48;;;;;;;5.13;3.13;;;;;;;;;;5015288;28;20128;-72
2022/10/09 04:39:14;;;;;;;8.02;3.90;;;;;;;;;;5031633;28;20045;-72
2022/10/09 04:41:40;;;;;;;7.45;4.45;;;;;;;;;;5031612;28;20128;-72
2022/10/09 04:44:06;;;;;;;13.00;5.55;;;;;;;;;;5031857;28;20049;-72
2022/10/09 04:46:32;;;;;;;29.88;6.35;;;;;;;;;;5032075;28;20045;-72
2022/10/09 04:48:58;;;;;;;12.48;5.82;;;;;;;;;;5032909;28;20061;-72
2022/10/09 04:51:24;;;;;;;11.68;6.25;;;;;;;;;;5031846;28;20168;-72
2022/10/09 04:53:50;;;;;;;11.48;6.25;;;;;;;;;;5033028;28;20045;-72
2022/10/09 04:56:18;;;;;;;25.73;7.47;;;;;;;;;;5032212;28;20120;-72
2022/10/09 04:58:44;;;;;;;11.02;5.82;;;;;;;;;;5035376;28;20052;-72
2022/10/09 05:01:12;;;;;;;11.07;5.95;;;;;;;;;;5035492;28;20041;-72
2022/10/09 05:03:38;;;;;;;10.80;4.80;;;;;;;;;;5035563;28;20049;-72
2022/10/09 05:06:06;;;;;;;8.27;5.18;;;;;;;;;;5035101;28;20056;-72
2022/10/09 05:08:32;;;;;;;10.98;5.63;;;;;;;;;;5035276;28;20080;-72
2022/10/09 05:10:59;;;;;;;10.43;5.40;;;;;;;;;;5035355;28;20124;-72
2022/10/09 05:13:25;;;;;;;12.70;5.60;;;;;;;;;;5018848;28;20037;-73
2022/10/09 05:15:52;;;;;;;12.10;5.65;;;;;;;;;;5035029;28;20095;-72
2022/10/09 05:18:18;;;;;;;9.18;5.18;;;;;;;;;;5035034;28;20041;-72
2022/10/09 05:20:44;;;;;;;10.20;5.82;;;;;;;;;;5034966;28;20120;-73
2022/10/09 05:23:10;;;;;;;13.88;7.20;;;;;;;;;;5034859;28;20053;-73
2022/10/09 05:25:36;;;;;;;13.35;6.55;;;;;;;;;;5034994;28;20125;-72
2022/10/09 05:28:03;;;;;;;10.82;6.53;;;;;;;;;;5034759;28;20037;-72
2022/10/09 05:30:29;;;;;;;13.23;7.10;;;;;;;;;;5018577;28;20076;-72
2022/10/09 05:32:55;;;;;;;9.65;6.25;;;;;;;;;;5034654;28;20038;-72
2022/10/09 05:35:21;;;;;;;8.70;6.25;;;;;;;;;;5018314;28;20045;-72
2022/10/09 05:37:47;;;;;;;12.63;7.70;;;;;;;;;;5034570;28;20091;-73
2022/10/09 05:40:13;;;;;;;13.45;7.60;;;;;;;;;;5034483;28;20076;-72
2022/10/09 05:42:39;;;;;;;13.63;6.97;;;;;;;;;;5018051;28;20048;-72
2022/10/09 05:45:07;;;;;;;14.32;6.95;;;;;;;;;;5018088;28;20493;-72
2022/10/09 05:47:33;;;;;;;8.63;5.97;;;;;;;;;;5018158;28;20440;-72
2022/10/09 05:49:59;;;;;;;9.40;6.65;;;;;;;;;;5034238;28;20490;-72
2022/10/09 05:52:25;;;;;;;10.35;6.65;;;;;;;;;;5034259;28;20045;-72
2022/10/09 05:54:51;;;;;;;8.43;6.78;;;;;;;;;;5034178;28;20033;-72
2022/10/09 05:57:17;;;;;;;11.90;6.78;;;;;;;;;;5034203;28;20529;-72
2022/10/09 05:59:43;;;;;;;7.88;6.10;;;;;;;;;;5034262;28;20494;-72
2022/10/09 06:02:09;;;;;;;13.98;7.00;;;;;;;;;;5034347;28;20044;-72
2022/10/09 06:04:36;;;;;;;10.10;6.00;;;;;;;;;;5034082;28;20041;-72
2022/10/09 06:07:02;;;;;;;11.95;6.45;;;;;;;;;;5017654;28;20494;-72
2022/10/09 06:09:28;;;;;;;11.68;6.63;;;;;;;;;;5032914;28;20120;-72
2022/10/09 06:11:54;;;;;;;10.80;6.97;;;;;;;;;;5033954;28;20099;-72
2022/10/09 06:14:21;;;;;;;10.35;6.47;;;;;;;;;;5017642;28;20041;-72
2022/10/09 06:16:47;;;;;;;11.50;6.13;;;;;;;;;;5033994;28;20041;-72
2022/10/09 06:19:15;;;;;;;8.90;5.63;;;;;;;;;;5034133;28;20048;-72
2022/10/09 06:21:41;;;;;;;13.18;6.25;;;;;;;;;;5034196;28;20037;-72
2022/10/09 06:24:07;;;;;;;7.72;5.68;;;;;;;;;;5033891;28;20044;-72
2022/10/09 06:26:33;;;;;;;11.80;5.95;;;;;;;;;;5033683;28;20044;-72
2022/10/09 06:29:01;;;;;;;6.53;5.38;;;;;;;;;;5033803;28;20045;-72
2022/10/09 06:31:31;;;;;;;9.48;5.15;;;;;;;;;;5034263;28;20064;-72
2022/10/09 06:33:59;;;;;;;12.80;5.53;;;;;;;;;;5033415;28;20041;-72
2022/10/09 06:36:26;;;;;;;11.55;6.07;;;;;;;;;;5033745;28;20041;-72
2022/10/09 06:38:53;;;;;;;12.55;6.10;;;;;;;;;;5017214;28;20049;-72
2022/10/09 06:41:23;;;;;;;8.40;5.45;;;;;;;;;;5017062;28;20046;-72
2022/10/09 06:43:53;;;;;;;12.82;5.70;;;;;;;;;;5017276;28;20041;-72
2022/10/09 06:46:20;;;;;;;9.43;5.70;;;;;;;;;;5033388;28;20128;-72
2022/10/09 06:48:46;;;;;;;13.90;6.18;;;;;;;;;;5033175;28;20507;-72
2022/10/09 06:51:17;;;;;;;11.57;6.88;;;;;;;;;;5033337;28;20060;-72
2022/10/09 06:53:47;;;;;;;10.50;5.82;;;;;;;;;;5033364;28;20049;-72
2022/10/09 06:56:14;;;;;;;11.60;6.10;;;;;;;;;;5033227;28;20044;-72
2022/10/09 06:58:40;;;;;;;11.55;6.20;;;;;;;;;;5016687;28;20084;-72
2022/10/09 07:01:14;;;;;;;11.73;6.38;;;;;;;;;;5033078;28;20401;-72
2022/10/09 07:03:42;;;;;;;11.63;6.50;;;;;;;;;;5033083;28;20095;-72
2022/10/09 07:06:21;;;;;;;13.52;5.78;;;;;;;;;;5033431;28;20049;-72
2022/10/09 07:08:48;;;;;;;13.43;5.97;;;;;;;;;;5032948;28;20037;-72
2022/10/09 07:11:19;;;;;;;12.55;5.93;;;;;;;;;;5016649;28;20057;-72
2022/10/09 07:13:45;;;;;;;8.93;6.35;;;;;;;;;;5016580;28;20474;-73
2022/10/09 07:16:11;;;;;;;11.05;6.30;;;;;;;;;;5033037;28;20037;-73
2022/10/09 07:18:38;;;;;;;11.65;6.40;;;;;;;;;;5032601;28;20087;-73
2022/10/09 07:21:06;;;;;;;15.85;6.57;;;;;;;;;;5032587;28;20045;-73
2022/10/09 07:23:33;;;;;;;15.40;7.30;;;;;;;;;;5033056;28;20100;-73
2022/10/09 07:25:59;;;;;;;10.60;6.03;;;;;;;;;;5032547;28;20048;-73
2022/10/09 07:28:26;;;;;;;17.17;6.85;;;;;;;;;;5032418;28;20501;-73
2022/10/09 07:30:52;;;;;;;14.00;6.53;;;;;;;;;;5032405;28;20038;-74
2022/10/09 07:33:20;;;;;;;13.52;6.60;;;;;;;;;;5032405;28;20532;-74
2022/10/09 07:35:54;;;;;;;10.38;6.40;;;;;;;;;;5032294;28;20041;-73
2022/10/09 07:38:20;;;;;;;9.35;5.95;;;;;;;;;;5032318;28;20037;-73
2022/10/09 07:40:46;;;;;;;11.45;6.97;;;;;;;;;;5032634;28;20092;-73
2022/10/09 07:43:12;;;;;;;14.80;6.20;;;;;;;;;;5032334;28;20085;-74
2022/10/09 07:45:39;;;;;;;11.48;6.00;;;;;;;;;;5032268;28;20490;-73
2022/10/09 07:48:05;;;;;;;13.35;6.30;;;;;;;;;;5032137;28;20048;-74
2022/10/09 07:50:31;;;;;;;12.45;6.70;;;;;;;;;;5032040;28;20046;-74
2022/10/09 07:52:57;;;;;;;10.18;5.72;;;;;;;;;;5032225;28;20041;-73
2022/10/09 07:55:23;;;;;;;15.65;7.30;;;;;;;;;;5032247;28;20049;-73
2022/10/09 07:57:50;;;;;;;8.02;5.50;;;;;;;;;;5032227;28;20045;-73
2022/10/09 08:00:16;;;;;;;13.77;6.18;;;;;;;;;;5015999;28;20081;-73
2022/10/09 08:02:42;;;;;;;11.30;6.18;;;;;;;;;;5032284;28;20057;-73
2022/10/09 08:05:09;;;;;;;11.43;6.20;;;;;;;;;;5015722;28;20057;-73
2022/10/09 08:07:35;;;;;;;14.70;6.30;;;;;;;;;;5015530;28;20542;-73
2022/10/09 08:10:01;;;;;;;10.70;6.63;;;;;;;;;;5032094;28;20037;-73
2022/10/09 08:12:27;;;;;;;9.65;5.80;;;;;;;;;;5032080;28;20042;-73
2022/10/09 08:14:53;;;;;;;12.82;5.95;;;;;;;;;;5032050;28;20041;-73
2022/10/09 08:17:19;;;;;;;14.30;6.05;;;;;;;;;;5031924;28;20440;-73
2022/10/09 08:19:46;;;;;;;10.68;5.75;;;;;;;;;;5032246;28;20311;-73
2022/10/09 08:22:12;;;;;;;12.63;5.88;;;;;;;;;;5031863;28;20051;-73
2022/10/09 08:24:38;;;;;;;12.45;5.90;;;;;;;;;;5015576;28;20049;-73
2022/10/09 08:27:04;;;;;;;14.95;6.05;;;;;;;;;;5031810;28;20041;-73
2022/10/09 08:29:31;;;;;;;9.25;6.18;;;;;;;;;;5031836;28;20100;-73
2022/10/09 08:31:57;;;;;;;10.32;6.13;;;;;;;;;;5033388;28;20501;-73
2022/10/09 08:34:23;;;;;;;8.60;5.80;;;;;;;;;;5035951;28;20614;-73
2022/10/09 08:36:50;;;;;;;15.10;6.47;;;;;;;;;;5035798;28;20549;-73
2022/10/09 08:39:16;;;;;;;12.38;6.22;;;;;;;;;;5037095;28;20113;-73
2022/10/09 08:41:53;;;;;;;12.98;6.18;;;;;;;;;;5037033;28;20037;-73
2022/10/09 08:44:32;;;;;;;11.73;6.05;;;;;;;;;;5035731;28;20041;-73
2022/10/09 08:47:02;;;;;;;18.35;6.18;;;;;;;;;;5035833;28;20042;-73
2022/10/09 08:49:31;;;;;;;22.75;7.25;;;;;;;;;;5019285;28;20437;-73
2022/10/09 08:51:59;;;;;;;9.07;4.97;;;;;;;;;;5036086;28;20034;-73
2022/10/09 08:54:32;;;;;;;12.50;4.97;;;;;;;;;;5019233;28;20041;-73
2022/10/09 08:57:00;;;;;;;9.90;4.93;;;;;;;;;;5035380;28;20054;-73
2022/10/09 08:59:26;;;;;;;12.68;5.32;;;;;;;;;;5035366;28;20052;-73
2022/10/09 09:02:01;;;;;;;13.05;5.32;;;;;;;;;;5035259;28;20077;-73
2022/10/09 09:04:56;;;;;;;16.63;5.50;;;11.50;99.90;;;;;;5019180;28;20499;-73
2022/10/09 09:07:34;;;;;;;13.20;4.85;;;;;;;;;;5006728;28;20096;-73
2022/10/09 09:10:29;;;;;;;11.68;5.00;;;11.50;99.90;;;;;;5035564;28;20128;-73
2022/10/09 09:12:58;;;;;;;10.55;4.80;;;;;;;;;;5035224;28;20048;-73
2022/10/09 09:15:29;;;;;;;9.25;4.35;;;;;;;;;;5035425;28;20178;-73
2022/10/09 09:18:13;;;;;;;8.05;3.92;;;;;;;;;;5035053;28;20049;-73
2022/10/09 09:20:56;;;;;;;10.88;3.78;;;;;;;;;;5035104;28;20133;-73
2022/10/09 09:23:27;;;;;;;7.03;3.58;;;;;;;;;;5018471;28;20045;-73
2022/10/09 09:25:53;;;;;;;9.45;3.40;;;;;;;;;;5034990;28;20045;-73
2022/10/09 09:28:22;;;;;;;7.57;3.95;;;;;;;;;;5034797;28;20053;-73
2022/10/09 09:30:59;;;;;;;6.80;3.40;;;;;;;;;;5034864;28;20038;-73
2022/10/09 09:33:29;;;;;;;6.57;2.80;;;;;;;;;;5034926;28;20041;-73
2022/10/09 09:36:04;;;;;;;7.32;3.50;;;;;;;;;;5034970;28;20132;-73
2022/10/09 09:38:30;;;;;;;14.48;4.05;;;;;;;;;;5034997;28;20042;-73
2022/10/09 09:40:56;;;;;;;9.75;3.67;;;;;;;;;;5034699;28;20049;-73
2022/10/09 09:43:23;;;;;;;14.50;3.95;;;;;;;;;;5034742;28;20045;-73
2022/10/09 09:45:56;;;;;;;9.40;3.53;;;;;;;;;;5034683;28;20044;-73
2022/10/09 09:48:29;;;;;;;10.32;3.50;;;;;;;;;;5034753;28;20073;-73
2022/10/09 09:50:56;;;;;;;9.27;3.08;;;;;;;;;;5034334;28;20203;-73
2022/10/09 09:53:22;;;;;;;9.25;2.58;;;;;;;;;;5034565;28;20052;-73
2022/10/09 09:55:52;;;;;;;12.75;2.92;;;;;;;;;;5034544;28;20068;-73
2022/10/09 09:58:19;;;;;;;15.90;3.22;;;;;;;;;;5036050;28;20099;-73
2022/10/09 10:01:00;;;;;;;10.10;2.92;;;;;;;;;;5018211;28;20041;-73
2022/10/09 10:03:26;;;;;;;12.05;3.63;;;;;;;;;;5035190;28;20041;-72
2022/10/09 10:05:53;;;;;;;13.00;3.42;;;;;;;;;;5035012;28;20041;-73
2022/10/09 10:08:22;;;;;;;9.15;3.10;;;;;;;;;;5035025;28;20045;-73
2022/10/09 10:10:49;;;;;;;6.28;2.72;;;;;;;;;;5035003;28;20044;-73
2022/10/09 10:13:16;;;;;;;8.25;3.13;;;;;;;;;;5019423;28;20060;-73
2022/10/09 10:15:55;;;;;;;11.35;3.13;;;;;;;;;;5035598;28;20099;-73
2022/10/09 10:18:22;;;;;;;7.03;2.88;;;;;;;;;;5038160;28;20103;-72
2022/10/09 10:20:56;;;;;;;11.40;2.78;;;;;;;;;;5034540;28;20053;-72
2022/10/09 10:23:45;;;;;;;11.27;3.03;;;;;;;;;;5034142;28;20048;-72
2022/10/09 10:26:19;;;;;;;7.88;3.00;;;;;;;;;;5023866;28;20133;-73
2022/10/09 10:28:51;;;;;;;11.02;3.35;;;;;;;;;;5033853;28;20045;-73
2022/10/09 10:31:26;;;;;;;16.30;4.35;;;;;;;;;;5033747;28;20448;-73
2022/10/09 10:33:55;;;;;;;7.10;2.97;;;;;;;;;;5034061;28;20037;-73
2022/10/09 10:36:21;;;;;;;6.93;2.70;;;;;;;;;;5033781;28;20041;-73
2022/10/09 10:39:10;;;;;;;13.20;2.58;;;;;;;;;;5033729;28;20042;-73
2022/10/09 10:41:41;;;;;;;7.53;2.28;;;;;;;;;;5017435;28;20110;-72
2022/10/09 10:44:09;;;;;;;7.18;2.45;;;;;;;;;;5050345;28;20049;-72
2022/10/09 10:46:41;;;;;;;12.05;2.47;;;;;;;;;;5033560;28;20104;-73
2022/10/09 10:49:11;;;;;;;8.32;2.65;;;;;;;;;;5033585;28;20049;-73
2022/10/09 10:51:52;;;;;;;10.18;2.38;;;;;;;;;;5034676;28;20060;-72
2022/10/09 10:54:21;;;;;;;8.77;2.88;;;;;;;;;;5032831;28;20120;-72
2022/10/09 10:56:47;;;;;;;9.13;2.28;;;;;;;;;;5033306;28;20516;-73
2022/10/09 10:59:13;;;;;;;7.78;2.40;;;;;;;;;;5033414;28;20489;-73
2022/10/09 11:01:58;;;;;;;10.35;2.50;;;;;;;;;;5033224;28;20064;-73
2022/10/09 11:04:42;;;;;;;10.45;2.50;;;;;;;;;;5033339;28;20049;-73
2022/10/09 11:12:31;;;;;;;10.45;2.80;;;;;;;;;;5090786;28;20052;-71
2022/10/09 11:15:07;;;;;;;7.88;2.50;;;;;;;;;;5076337;28;20097;-71
2022/10/09 11:17:41;;;;;;;7.50;2.50;;;;;;;;;;5076348;28;20382;-71
2022/10/09 11:20:26;;;;;;;8.75;2.03;;;;;;;;;;5076032;28;20437;-73
2022/10/09 11:22:52;;;;;;;4.45;1.77;;;;;;;;;;5076435;28;20067;-72
2022/10/09 11:25:18;;;;;;;11.95;1.90;;;;;;;;;;5076245;28;20044;-72
2022/10/09 11:28:03;;;;;;;7.43;2.10;;;;;;;;;;5076033;28;20043;-72
2022/10/09 11:30:37;;;;;;;5.40;2.03;;;;;;;;;;5076031;28;20078;-72
2022/10/09 11:33:19;;;;;;;10.32;2.30;;;;;;;;;;5075889;28;20082;-73
2022/10/09 11:35:56;;;;;;;13.00;2.30;;;;;;;;;;5075899;28;20036;-73
2022/10/09 11:38:25;;;;;;;8.65;2.30;;;;;;;;;;5076074;28;20039;-73
2022/10/09 11:40:51;;;;;;;13.75;2.38;;;;;;;;;;5076125;28;20516;-73
2022/10/09 11:43:27;;;;;;;11.38;2.33;;;;;;;;;;5075720;28;20522;-72
2022/10/09 11:46:08;;;;;;;8.32;2.08;;;;;;;;;;5075660;28;20094;-72
2022/10/09 11:48:43;;;;;;;6.55;2.10;;;;;;;;;;5075477;28;20091;-73
2022/10/09 11:51:15;;;;;;;9.73;2.60;;;;;;;;;;5075675;28;20119;-73
2022/10/09 11:53:42;;;;;;;10.75;2.30;;;;;;;;;;5075650;28;20075;-72
2022/10/09 11:56:23;;;;;;;8.48;1.98;;;;;;;;;;5075479;28;20040;-71
2022/10/09 11:59:00;;;;;;;7.38;1.92;;;;;;;;;;5073767;28;20065;-74
2022/10/09 12:01:31;;;;;;;5.65;1.70;;;;;;;;;;5058751;28;20403;-74
2022/10/09 12:04:07;;;;;;;7.78;2.20;;;;;;;;;;5075613;28;20040;-74
2022/10/09 12:06:44;;;;;;;7.60;1.83;;;;;;;;;;5073709;28;20043;-73
2022/10/09 12:09:19;;;;;;;7.43;1.75;;;;;;;;;;5076110;28;20085;-79
2022/10/09 12:11:53;;;;;;;6.45;1.58;;;;;;;;;;5071994;28;20071;-70
2022/10/09 12:14:24;;;;;;;8.25;1.73;;;;;;;;;;5059088;28;20044;-76
2022/10/09 12:16:51;;;;;;;15.80;2.40;;;;;;;;;;5075912;28;20048;-71
2022/10/09 12:19:25;;;;;;;6.90;2.05;;;;;;;;;;5073255;28;20058;-71
2022/10/09 12:21:54;;;;;;;6.60;1.65;;;;;;;;;;5070328;28;20365;-71
2022/10/09 12:24:23;;;;;;;5.35;1.90;;;;;;;;;;5071085;28;20064;-71
2022/10/09 12:26:50;;;;;;;5.18;2.00;;;;;;;;;;5070901;28;20111;-71
2022/10/09 12:29:24;;;;;;;8.40;1.90;;;;;;;;;;5070996;28;20176;-71
2022/10/09 12:31:50;;;;;;;6.78;2.30;;;;;;;;;;5070789;28;20082;-71
2022/10/09 12:34:19;;;;;;;8.05;2.13;;;;;;;;;;5055317;28;20071;-72
2022/10/09 12:36:46;;;;;;;8.55;1.83;;;;;;;;;;5072147;28;20388;-72
2022/10/09 12:39:18;;;;;;;8.55;1.88;;;;;;;;;;5054122;28;20043;-72
2022/10/09 12:41:45;;;;;;;14.15;3.38;;;;;;;;;;5070303;28;20037;-72
2022/10/09 12:44:31;;;;;;;6.55;2.00;;;;;;;;;;5070533;28;20039;-72
2022/10/09 12:47:15;;;;;;;8.52;2.20;;;;;;;;;;5053865;28;20080;-72
2022/10/09 12:49:41;;;;;;;8.00;2.10;;;;;;;;;;5070588;28;20119;-72
2022/10/09 12:52:15;;;;;;;6.25;2.28;;;;;;;;;;5069775;28;20426;-72
2022/10/09 12:54:44;;;;;;;6.43;1.98;;;;;;;;;;5067087;28;20029;-72
2022/10/09 12:57:14;;;;;;;9.07;2.95;;;;;;;;;;5067130;28;20045;-72
2022/10/09 12:59:41;;;;;;;13.23;3.08;;;;;;;;;;5067962;28;20082;-72
2022/10/09 13:02:10;;;;;;;10.70;2.53;;;;;;;;;;5066815;28;20048;-72
2022/10/09 13:04:36;;;;;;;7.20;2.28;;;;;;;;;;5066835;28;20063;-72
2022/10/09 13:07:06;;;;;;;11.57;2.60;;;;;;;;;;5066195;28;20483;-72
2022/10/09 13:09:35;;;;;;;9.05;2.50;;;;;;;;;;5069987;28;20075;-72
2022/10/09 13:12:28;;;;;;;11.00;2.40;;;18.40;99.10;;;;;;5051502;28;20053;-70
2022/10/09 13:14:57;;;;;;;9.98;2.50;;;;;;;;;;5048636;28;20040;-70
2022/10/09 13:17:23;;;;;;;9.07;2.13;;;;;;;;;;5034273;28;20152;-71
2022/10/09 13:19:53;;;;;;;8.65;2.58;;;;;;;;;;5054055;28;20036;-71
2022/10/09 13:22:24;;;;;;;11.60;2.97;;;;;;;;;;5056437;28;20124;-71
2022/10/09 13:24:52;;;;;;;10.52;2.60;;;;;;;;;;5063208;28;20426;-71
2022/10/09 13:27:18;;;;;;;9.35;2.47;;;;;;;;;;5042411;28;20048;-71
2022/10/09 13:29:44;;;;;;;9.90;2.30;;;;;;;;;;5054873;28;20446;-71
2022/10/09 13:32:16;;;;;;;7.55;2.05;;;18.80;97.10;;;;;;5054048;28;20037;-71
2022/10/09 13:34:42;;;;;;;5.65;2.13;;;;;;;;;;5054940;28;20040;-71
2022/10/09 13:37:13;;;;;;;9.75;2.25;;;;;;;;;;5054721;28;20036;-71
2022/10/09 13:39:39;;;;;;;5.93;2.45;;;;;;;;;;5059149;28;20036;-70
2022/10/09 13:42:05;;;;;;;9.93;2.17;;;;;;;;;;5054987;28;20056;-70
2022/10/09 13:44:31;;;;;;;10.13;2.33;;;;;;;;;;5038166;28;20045;-70
2022/10/09 13:46:58;;;;;;;11.75;2.60;;;;;;;;;;5054461;28;20366;-71
2022/10/09 13:49:24;;;;;;;8.23;1.98;;;;;;;;;;5054534;28;20044;-71
2022/10/09 13:51:50;;;;;;;9.98;2.53;;;;;;;;;;5054130;28;20082;-70
2022/10/09 13:54:16;;;;;;;6.85;2.20;;;;;;;;;;5054061;28;20040;-71
2022/10/09 13:56:42;;;;;;;9.32;2.53;;;;;;;;;;5054046;28;20083;-70
2022/10/09 13:59:08;;;;;;;6.40;2.45;;;;;;;;;;5037985;28;20135;-71
2022/10/09 14:01:34;;;;;;;8.10;2.35;;;;;;;;;;5054235;28;20186;-71
2022/10/09 14:04:00;;;;;;;8.95;2.55;;;;;;;;;;5054310;28;20044;-71
2022/10/09 14:06:26;;;;;;;8.70;2.70;;;;;;;;;;5054346;28;20041;-71
2022/10/09 14:08:52;;;;;;;9.05;2.65;;;;;;;;;;5053964;28;20044;-70
2022/10/09 14:11:18;;;;;;;8.10;3.58;;;;;;;;;;5065996;28;20127;-71
2022/10/09 14:13:44;;;;;;;9.18;2.53;;;;;;;;;;5057373;28;20032;-70
2022/10/09 14:16:10;;;;;;;9.10;2.95;;;;;;;;;;5073784;28;20047;-71
2022/10/09 14:18:37;;;;;;;7.00;2.30;;;;;;;;;;5073739;28;20102;-71
2022/10/09 14:21:13;;;;;;;13.00;3.80;;;;;;;;;;5073664;28;20045;-71
2022/10/09 14:23:39;;;;;;;6.45;2.88;;;;;;;;;;5057270;28;20074;-71
2022/10/09 14:26:05;;;;;;;9.90;3.00;;;;;;;;;;5073727;28;20036;-71
2022/10/09 14:28:32;;;;;;;10.60;3.10;;;;;;;;;;5073588;28;20040;-71
2022/10/09 14:30:59;;;;;;;11.30;3.17;;;;;;;;;;5056177;28;20033;-72
2022/10/09 14:33:25;;;;;;;8.23;2.55;;;;;;;;;;5074149;28;20055;-71
2022/10/09 14:35:51;;;;;;;7.28;2.67;;;;;;;;;;5057516;28;20028;-71
2022/10/09 14:38:17;;;;;;;11.32;3.10;;;;;;;;;;5073715;28;20047;-71
2022/10/09 14:40:44;;;;;;;7.78;2.60;;;;;;;;;;5056340;28;20173;-71
2022/10/09 14:43:10;;;;;;;9.45;3.05;;;;;;;;;;5073643;28;20043;-71
2022/10/09 14:45:37;;;;;;;7.90;2.92;;;;;;;;;;5073214;28;20079;-71
2022/10/09 14:48:03;;;;;;;16.02;4.07;;;;;;;;;;5073524;28;20045;-71
2022/10/09 14:50:29;;;;;;;7.57;2.85;;;;;;;;;;5056797;28;20388;-71